Terminal Aerodrome Forecast
Issued by NWS

Home | Current Version | Previous Version | Text Only | Print | Product List | Glossary On
Versions: 1 2 3 4 5 6 7 8 9 10 11 12 13 14 15 16 17 18 19 20 21 22 23 24 25 26 27 28 29 30 31 32 33 34 35 36
000
FTUS45 KBYZ 060522
TAFLVM
TAF
KLVM 060522Z 0606/0706 34006KT P6SM VCSH SCT100 BKN200
     FM060900 11016KT P6SM VCSH SCT040 BKN080
     FM061300 10016G24KT P6SM VCSH SCT030 OVC040=

USA.gov is the U.S. government's official web portal to all federal, state and local government web resources and services.